Map

Track Data

SID SEASON NUMBER BASIN SUBBASIN NAME ISO_TIME NATURE LAT LON WMO_WIND WMO_PRES WMO_AGENCY TRACK_TYPE DIST2LAND LANDFALL IFLAG USA_AGENCY USA_ATCF_ID USA_LAT USA_LON USA_RECORD USA_STATUS USA_WIND USA_PRES USA_SSHS USA_R34_NE USA_R34_SE USA_R34_SW USA_R34_NW USA_R50_NE USA_R50_SE USA_R50_SW USA_R50_NW USA_R64_NE USA_R64_SE USA_R64_SW USA_R64_NW USA_POCI USA_ROCI USA_RMW USA_EYE TOKYO_LAT TOKYO_LON TOKYO_GRADE TOKYO_WIND TOKYO_PRES TOKYO_R50_DIR TOKYO_R50_LONG TOKYO_R50_SHORT TOKYO_R30_DIR TOKYO_R30_LONG TOKYO_R30_SHORT TOKYO_LAND CMA_LAT CMA_LON CMA_CAT CMA_WIND CMA_PRES HKO_LAT HKO_LON HKO_CAT HKO_WIND HKO_PRES NEWDELHI_LAT NEWDELHI_LON NEWDELHI_GRADE NEWDELHI_WIND NEWDELHI_PRES NEWDELHI_CI NEWDELHI_DP NEWDELHI_POCI REUNION_LAT REUNION_LON REUNION_TYPE REUNION_WIND REUNION_PRES REUNION_TNUM REUNION_CI REUNION_RMW REUNION_R34_NE REUNION_R34_SE REUNION_R34_SW REUNION_R34_NW REUNION_R50_NE REUNION_R50_SE REUNION_R50_SW REUNION_R50_NW REUNION_R64_NE REUNION_R64_SE REUNION_R64_SW REUNION_R64_NW BOM_LAT BOM_LON BOM_TYPE BOM_WIND BOM_PRES BOM_TNUM BOM_CI BOM_RMW BOM_R34_NE BOM_R34_SE BOM_R34_SW BOM_R34_NW BOM_R50_NE BOM_R50_SE BOM_R50_SW BOM_R50_NW BOM_R64_NE BOM_R64_SE BOM_R64_SW BOM_R64_NW BOM_ROCI BOM_POCI BOM_EYE BOM_POS_METHOD BOM_PRES_METHOD NADI_LAT NADI_LON NADI_CAT NADI_WIND NADI_PRES WELLINGTON_LAT WELLINGTON_LON WELLINGTON_WIND WELLINGTON_PRES DS824_LAT DS824_LON DS824_STAGE DS824_WIND DS824_PRES TD9636_LAT TD9636_LON TD9636_STAGE TD9636_WIND TD9636_PRES TD9635_LAT TD9635_LON TD9635_WIND TD9635_PRES TD9635_ROCI NEUMANN_LAT NEUMANN_LON NEUMANN_CLASS NEUMANN_WIND NEUMANN_PRES MLC_LAT MLC_LON MLC_CLASS MLC_WIND MLC_PRES USA_GUST BOM_GUST BOM_GUST_PER REUNION_GUST REUNION_GUST_PER USA_SEAHGT USA_SEARAD_NE USA_SEARAD_SE USA_SEARAD_SW USA_SEARAD_NW STORM_SPEED STORM_DIR
2020254N25287 2020 70 NA NA SALLY 2020-09-10 06:00:00 NR 24.6000 -73.0000 PROVISIONAL 380 380 O_____________ nhc_working_bt AL192020 24.6000 -73.0000 DB 20 1014 -3 1015 120 100 10 281
2020254N25287 2020 70 NA NA SALLY 2020-09-10 09:00:00 NR 24.6979 -73.5524 PROVISIONAL 393 365 P_____________ AL192020 24.6979 -73.5524 DB 20 1014 -3 1015 120 100 10 281
2020254N25287 2020 70 NA NA SALLY 2020-09-10 12:00:00 NR 24.8000 -74.1000 PROVISIONAL 365 316 O_____________ nhc_working_bt AL192020 24.8000 -74.1000 DB 20 1014 -3 1015 120 100 10 282
2020254N25287 2020 70 NA NA SALLY 2020-09-10 15:00:00 NR 24.9072 -74.6425 PROVISIONAL 316 258 P_____________ AL192020 24.9072 -74.6425 DB 20 1014 -3 1015 120 100 10 281
2020254N25287 2020 70 NA NA SALLY 2020-09-10 18:00:00 NR 25.0000 -75.2000 PROVISIONAL 258 203 O_____________ nhc_working_bt AL192020 25.0000 -75.2000 DB 20 1014 -3 1015 120 100 11 278
2020254N25287 2020 70 NA NA SALLY 2020-09-10 21:00:00 NR 25.0651 -75.8150 PROVISIONAL 203 147 P_____________ AL192020 25.0651 -75.8150 DB 20 1014 -3 1015 120 100 11 275
2020254N25287 2020 70 NA NA SALLY 2020-09-11 00:00:00 NR 25.1000 -76.4000 PROVISIONAL 147 101 O_____________ nhc_working_bt AL192020 25.1000 -76.4000 DB 20 1014 -3 1015 120 100 10 273
2020254N25287 2020 70 NA NA SALLY 2020-09-11 03:00:00 NR 25.1148 -76.8875 PROVISIONAL 101 64 P_____________ AL192020 25.1148 -76.8875 DB 20 1013 -3 1014 120 100 8 270
2020254N25287 2020 70 NA NA SALLY 2020-09-11 06:00:00 NR 25.1000 -77.3000 PROVISIONAL 64 23 O_____________ nhc_working_bt AL192020 25.1000 -77.3000 DB 20 1013 -3 1014 120 100 7 263
2020254N25287 2020 70 NA NA SALLY 2020-09-11 09:00:00 NR 25.0274 -77.6728 PROVISIONAL 23 0 P_____________ AL192020 25.0274 -77.6728 DB 22 1012 -3 1013 120 100 6 261
2020254N25287 2020 70 NA NA SALLY 2020-09-11 12:00:00 NR 25.0000 -78.0000 PROVISIONAL 0 0 O_____________ nhc_working_bt AL192020 25.0000 -78.0000 DB 25 1011 -3 1013 120 100 6 279
2020254N25287 2020 70 NA NA SALLY 2020-09-11 15:00:00 NR 25.1198 -78.2924 PROVISIONAL 20 20 P_____________ AL192020 25.1198 -78.2924 DB 27 1010 -3 1013 135 80 6 299
2020254N25287 2020 70 NA NA SALLY 2020-09-11 18:00:00 TS 25.3000 -78.6000 PROVISIONAL 55 55 O_____________ nhc_working_bt AL192020 25.3000 -78.6000 TD 30 1010 -1 1013 150 60 7 299
2020254N25287 2020 70 NA NA SALLY 2020-09-11 21:00:00 TS 25.4764 -78.9935 PROVISIONAL 100 73 P_____________ AL192020 25.4725 -78.9848 TD 30 1008 -1 1012 165 60 8 293
2020254N25287 2020 70 NA NA SALLY 2020-09-12 00:00:00 TS 25.6000 -79.4000 PROVISIONAL 73 37 O_____________ nhc_working_bt AL192020 25.6000 -79.4000 TD 30 1007 -1 1011 180 60 40 7 282
2020254N25287 2020 70 NA NA SALLY 2020-09-12 03:00:00 TS 25.6249 -79.8002 PROVISIONAL 37 10 P_____________ AL192020 25.6300 -79.8152 TD 30 1006 -1 1010 180 35 7 270
2020254N25287 2020 70 NA NA SALLY 2020-09-12 06:00:00 TS 25.6000 -80.2000 PROVISIONAL 10 0 O_____________ nhc_working_bt AL192020 25.6000 -80.2000 TD 30 1005 -1 1009 180 10 40 7 267
2020254N25287 2020 70 NA NA SALLY 2020-09-12 09:00:00 TS 25.5859 -80.6225 PROVISIONAL 0 0 P_____________ AL192020 25.5423 -80.5076 TD 30 1004 -1 1009 165 15 7 267
2020254N25287 2020 70 NA NA SALLY 2020-09-12 12:00:00 TS 25.5667 -81.0000 PROVISIONAL 0 0 O_____________ nhc_working_bt AL192020 25.5000 -80.8000 TD 30 1004 -1 1009 150 20 40 6 262
2020254N25287 2020 70 NA GM SALLY 2020-09-12 15:00:00 TS 25.5121 -81.2428 PROVISIONAL 0 0 P_____________ AL192020 25.5124 -81.1277 TD 32 1004 -1 1009 150 40 5 266
2020254N25287 2020 70 NA GM SALLY 2020-09-12 18:00:00 TS 25.5333 -81.5000 PROVISIONAL 30 24 O_____________ nhc_working_bt AL192020 25.6000 -81.5000 TS 35 1004 0 70 1009 150 60 6 288
2020254N25287 2020 70 NA GM SALLY 2020-09-12 21:00:00 TS 25.7117 -81.9100 PROVISIONAL 29 29 P_____________ AL192020 25.7548 -81.9203 TS 35 1003 0 70 1008 150 60 9 300
2020254N25287 2020 70 NA GM SALLY 2020-09-13 00:00:00 TS 26.0000 -82.4000 PROVISIONAL 60 60 O_____________ nhc_working_bt AL192020 26.0000 -82.4000 TS 35 1003 0 70 1008 150 60 45 11 305
2020254N25287 2020 70 NA GM SALLY 2020-09-13 03:00:00 TS 26.3398 -82.8967 PROVISIONAL 81 74 P_____________ AL192020 26.3350 -82.9348 TS 40 1002 0 75 1008 135 45 12 307
2020254N25287 2020 70 NA GM SALLY 2020-09-13 06:00:00 TS 26.7000 -83.4333 PROVISIONAL 103 103 O_____________ nhc_working_bt AL192020 26.7000 -83.5000 TS 45 1002 0 50 80 20 1008 120 30 50 12 304
2020254N25287 2020 70 NA GM SALLY 2020-09-13 09:00:00 TS 27.0226 -84.0217 PROVISIONAL 142 142 P_____________ AL192020 27.0224 -84.0651 TS 47 1000 0 55 80 20 1008 120 30 12 300
2020254N25287 2020 70 NA GM SALLY 2020-09-13 12:00:00 TS 27.3000 -84.6000 PROVISIONAL 180 180 O_____________ nhc_working_bt AL192020 27.3000 -84.6000 TS 50 998 0 60 80 20 30 30 1008 120 30 60 11 297
2020254N25287 2020 70 NA GM SALLY 2020-09-13 15:00:00 TS 27.5200 -85.1435 PROVISIONAL 220 220 P_____________ AL192020 27.5299 -85.0952 TS 50 998 0 75 95 25 30 30 1008 135 30 9 295
2020254N25287 2020 70 NA GM SALLY 2020-09-13 18:00:00 TS 27.7000 -85.5667 PROVISIONAL 224 203 O_____________ nhc_working_bt AL192020 27.7000 -85.5000 TS 50 998 0 90 110 30 30 30 1008 150 30 60 12 30 30 30 7 304
2020254N25287 2020 70 NA GM SALLY 2020-09-13 21:00:00 TS 27.8862 -85.7579 PROVISIONAL 204 193 P_____________ AL192020 27.8147 -85.7728 TS 50 997 0 90 110 30 30 30 1008 150 30 12 75 60 60 5 316
2020254N25287 2020 70 NA GM SALLY 2020-09-14 00:00:00 TS 28.0333 -85.9333 PROVISIONAL 195 187 O_____________ nhc_working_bt AL192020 27.9000 -86.0000 TS 50 997 0 90 110 30 30 30 1008 150 30 60 12 120 90 30 90 6 293
2020254N25287 2020 70 NA GM SALLY 2020-09-14 03:00:00 TS 28.1180 -86.3667 PROVISIONAL 203 203 P_____________ AL192020 27.9926 -86.3150 TS 50 996 0 100 110 65 40 30 1008 150 35 12 120 90 82 8 280
2020254N25287 2020 70 NA GM SALLY 2020-09-14 06:00:00 TS 28.1667 -86.8000 PROVISIONAL 215 215 O_____________ nhc_working_bt AL192020 28.1000 -86.6000 TS 50 996 0 110 110 20 100 50 30 40 1009 150 40 60 12 120 90 75 6 277
2020254N25287 2020 70 NA GM SALLY 2020-09-14 09:00:00 TS 28.1940 -87.0459 PROVISIONAL 219 196 P_____________ AL192020 28.2424 -86.7726 TS 55 993 0 110 110 20 100 50 30 35 1009 150 40 12 120 90 87 3 287
2020254N25287 2020 70 NA GM SALLY 2020-09-14 12:00:00 TS 28.2667 -87.1667 PROVISIONAL 196 187 O_____________ nhc_working_bt AL192020 28.4000 -86.9000 TS 60 991 0 110 110 20 100 50 30 30 1009 150 40 65 12 120 90 60 100 3 337
2020254N25287 2020 70 NA GM SALLY 2020-09-14 15:00:00 TS 28.4833 -87.1885 PROVISIONAL 187 178 P_____________ AL192020 28.5650 -87.0500 TS 70 988 1 110 110 25 95 50 30 30 10 7 7 1009 150 27 12 120 90 60 100 4 355
2020254N25287 2020 70 NA GM SALLY 2020-09-14 18:00:00 TS 28.7000 -87.2000 PROVISIONAL 178 167 O_____________ nhc_working_bt AL192020 28.7000 -87.2000 HU 80 986 1 110 110 30 90 50 30 30 20 15 15 1009 150 15 100 12 120 90 60 100 3 340
2020254N25287 2020 70 NA GM SALLY 2020-09-14 21:00:00 TS 28.7825 -87.3150 PROVISIONAL 167 149 P_____________ AL192020 28.7724 -87.3351 HU 80 986 1 110 110 30 90 60 35 30 30 17 15 1009 150 15 12 120 90 67 102 3 291
2020254N25287 2020 70 NA GM SALLY 2020-09-15 00:00:00 TS 28.8000 -87.5000 PROVISIONAL 149 121 O_____________ nhc_working_bt AL192020 28.8000 -87.5000 HU 80 986 1 110 110 30 90 70 40 30 40 20 15 1009 150 15 105 12 120 90 75 105 4 270
2020254N25287 2020 70 NA GM SALLY 2020-09-15 03:00:00 TS 28.7852 -87.7726 PROVISIONAL 121 102 P_____________ AL192020 28.7852 -87.7726 HU 80 986 1 110 110 30 90 70 40 30 40 22 20 1009 150 20 12 165 180 112 90 4 270
2020254N25287 2020 70 NA GM SALLY 2020-09-15 06:00:00 TS 28.8000 -88.0000 PROVISIONAL 102 99 O_____________ nhc_working_bt AL192020 28.8000 -88.0000 HU 80 986 1 110 110 30 90 70 40 30 40 25 25 1009 150 25 100 12 210 270 150 75 3 304
2020254N25287 2020 70 NA GM SALLY 2020-09-15 09:00:00 TS 28.9349 -88.0301 PROVISIONAL 99 97 P_____________ AL192020 28.9349 -88.0301 HU 77 984 1 110 110 30 85 70 40 30 40 25 25 1009 150 25 12 150 190 150 82 3 0
2020254N25287 2020 70 NA GM SALLY 2020-09-15 12:00:00 TS 29.1000 -88.0000 PROVISIONAL 97 87 O_____________ nhc_working_bt AL192020 29.1000 -88.0000 HU 75 983 1 110 110 30 80 70 40 30 40 25 25 1010 150 25 100 12 90 110 150 90 3 357
2020254N25287 2020 70 NA GM SALLY 2020-09-15 15:00:00 TS 29.2000 -88.0574 PROVISIONAL 87 87 P_____________ AL192020 29.2000 -88.0574 HU 72 982 1 110 110 55 80 70 40 40 37 22 25 1011 165 22 12 90 130 135 90 2 335
2020254N25287 2020 70 NA GM SALLY 2020-09-15 18:00:00 TS 29.3000 -88.1000 PROVISIONAL 90 89 O_____________ nhc_working_bt AL192020 29.3000 -88.1000 HU 70 981 1 110 110 80 80 70 40 50 35 20 25 1012 180 20 85 12 90 150 120 90 2 354
2020254N25287 2020 70 NA GM SALLY 2020-09-15 21:00:00 TS 29.4425 -88.0725 PROVISIONAL 89 66 P_____________ AL192020 29.4425 -88.0725 HU 72 978 1 110 110 80 80 70 40 50 35 20 25 1011 160 20 12 105 135 105 90 3 16
2020254N25287 2020 70 NA GM SALLY 2020-09-16 00:00:00 TS 29.6000 -88.0000 PROVISIONAL 66 55 O_____________ nhc_working_bt AL192020 29.6000 -88.0000 HU 75 975 1 110 110 80 80 70 40 30 50 35 20 25 1010 140 20 90 12 120 120 90 90 3 26
2020254N25287 2020 70 NA GM SALLY 2020-09-16 03:00:00 TS 29.7350 -87.9074 PROVISIONAL 56 38 P_____________ AL192020 29.7350 -87.9075 HU 82 971 1 110 110 80 80 70 40 30 50 35 20 25 1010 140 20 12 120 120 90 90 3 30
2020254N25287 2020 70 NA GM SALLY 2020-09-16 06:00:00 TS 29.9000 -87.8000 PROVISIONAL 38 22 O_____________ nhc_working_bt AL192020 29.9000 -87.8000 HU 90 968 2 110 110 80 80 70 40 30 50 35 20 25 1010 140 20 110 12 120 120 90 90 4 21
2020254N25287 2020 70 NA GM SALLY 2020-09-16 09:00:00 TS 30.1349 -87.7223 PROVISIONAL 22 0 P_____________ AL192020 30.1349 -87.7223 HU 87 967 2 100 110 80 75 65 40 30 50 32 22 25 1010 140 20 12 127 90 5 19
2020254N25287 2020 70 NA NA SALLY 2020-09-16 12:00:00 TS 30.4000 -87.6000 PROVISIONAL 0 0 O_____________ nhc_working_bt AL192020 30.4000 -87.6000 HU 85 967 2 90 110 80 70 60 40 30 50 30 25 25 1010 140 20 105 12 135 90 6 31
2020254N25287 2020 70 NA NA SALLY 2020-09-16 15:00:00 TS 30.6425 -87.3774 PROVISIONAL 0 0 P_____________ AL192020 30.6426 -87.3725 HU 72 974 1 85 110 80 65 50 35 30 35 15 12 12 1010 140 20 12 135 90 7 41
2020254N25287 2020 70 NA NA SALLY 2020-09-16 18:00:00 TS 30.9000 -87.1000 PROVISIONAL 0 0 O_____________ nhc_working_bt AL192020 30.9000 -87.1000 TS 60 982 0 80 110 80 60 40 30 30 20 1010 140 20 75 12 135 90 8 40
2020254N25287 2020 70 NA NA SALLY 2020-09-16 21:00:00 TS 31.2301 -86.7970 PROVISIONAL 0 0 P_____________ AL192020 31.2300 -86.8353 TS 47 988 0 80 110 80 60 1010 140 25 8 39
2020254N25287 2020 70 NA NA SALLY 2020-09-17 00:00:00 TS 31.5000 -86.5333 PROVISIONAL 0 0 O_____________ nhc_working_bt AL192020 31.5000 -86.6000 TS 35 994 0 80 110 80 60 1010 140 30 45 4 42
2020254N25287 2020 70 NA NA SALLY 2020-09-17 03:00:00 TS 31.5571 -86.4484 PROVISIONAL 0 0 P_____________ AL192020 31.5571 -86.4867 TS 32 996 -1 1010 140 30 2 63
2020254N25287 2020 70 NA NA SALLY 2020-09-17 06:00:00 TS 31.6000 -86.3000 PROVISIONAL 0 0 O_____________ nhc_working_bt AL192020 31.6000 -86.3000 TD 30 998 -1 1010 140 30 40 5 63
2020254N25287 2020 70 NA NA SALLY 2020-09-17 09:00:00 TS 31.7770 -85.9494 PROVISIONAL 0 0 P_____________ AL192020 31.7418 -86.0130 TD 27 1001 -1 1010 190 30 10 60
2020254N25287 2020 70 NA NA SALLY 2020-09-17 12:00:00 ET 32.1000 -85.3000 PROVISIONAL 0 0 O_____________ nhc_working_bt AL192020 32.1000 -85.3000 EX 25 1004 -4 1010 240 30 35 18 60
2020254N25287 2020 70 NA NA SALLY 2020-09-17 15:00:00 ET 32.6836 -84.0832 PROVISIONAL 0 0 P_____________ AL192020 32.8730 -83.6957 EX 20 1004 -4 1010 240 65 25 61
2020254N25287 2020 70 NA NA SALLY 2020-09-17 18:00:00 ET 33.3325 -82.6683 PROVISIONAL 0 0 O_____________ nhc_working_bt AL192020 33.6000 -82.1000 EX 15 1005 -4 1010 240 100 20 25 62
2020254N25287 2020 70 NA NA SALLY 2020-09-17 21:00:00 ET 33.8895 -81.3983 PROVISIONAL 0 0 P_____________ AL192020 33.8895 -81.3983 EX 17 1004 -4 1010 240 100 13 63
2020254N25287 2020 70 NA NA SALLY 2020-09-18 00:00:00 ET 33.9000 -81.3000 PROVISIONAL 0 O_____________ nhc_working_bt AL192020 33.9000 -81.3000 EX 20 1004 -4 1010 240 100 2 82

About IBTrACS Database

This database is a web-friendly format of International Best Track Archive for Climate Stewardship (IBTrACS), a global best track data archive curated by NOAA dating back to 1842.

Updated: 2021-11-26